Time;durP1;ratioP1;P1;durP2;ratioP2;P2;SDS_P1;SDS_P2;PMS_P1;PMS_P2;Temp;Humidity;BMP_temperature;BMP_pressure;BME280_temperature;BME280_humidity;BME280_pressure;Samples;Min_cycle;Max_cycle;Signal;HPM_P1;HPM_P2
2023/03/14 00:00:18;;;;;;;0.87;0.80;;;13.00;99.90;;;;;;926562;150;27502;-82
2023/03/14 00:02:44;;;;;;;0.97;0.80;;;13.10;99.90;;;;;;922721;152;27419;-81
2023/03/14 00:05:11;;;;;;;0.60;0.60;;;13.10;99.90;;;;;;942629;148;27479;-81
2023/03/14 00:07:37;;;;;;;0.90;0.90;;;13.20;99.90;;;;;;940167;148;27406;-82
2023/03/14 00:10:07;;;;;;;1.23;0.77;;;13.20;99.90;;;;;;941773;148;27505;-81
2023/03/14 00:12:33;;;;;;;0.63;0.63;;;13.30;99.70;;;;;;942537;148;27404;-82
2023/03/14 00:15:03;;;;;;;0.97;0.77;;;13.30;99.50;;;;;;942866;148;27305;-81
2023/03/14 00:17:27;;;;;;;1.60;0.80;;;13.30;99.30;;;;;;940800;148;27415;-81
2023/03/14 00:19:53;;;;;;;0.67;0.67;;;13.40;99.20;;;;;;942382;148;27368;-81
2023/03/14 00:22:20;;;;;;;0.70;0.70;;;13.40;99.00;;;;;;940807;148;27389;-82
2023/03/14 00:24:46;;;;;;;1.93;1.00;;;13.40;98.80;;;;;;940740;148;27400;-81
2023/03/14 00:27:13;;;;;;;1.67;1.00;;;13.40;98.80;;;;;;943817;148;27341;-82
2023/03/14 00:29:40;;;;;;;0.97;0.80;;;13.40;98.50;;;;;;942572;148;27315;-82
2023/03/14 00:32:06;;;;;;;1.27;0.90;;;13.40;98.40;;;;;;942204;148;27322;-82
2023/03/14 00:34:33;;;;;;;2.57;1.00;;;13.40;98.30;;;;;;944520;148;27392;-81
2023/03/14 00:36:59;;;;;;;0.70;0.70;;;13.40;98.20;;;;;;940096;148;27340;-82
2023/03/14 00:39:26;;;;;;;0.97;0.80;;;13.40;98.20;;;;;;942569;148;27353;-82
2023/03/14 00:41:53;;;;;;;1.13;1.00;;;13.50;98.20;;;;;;943821;148;27314;-82
2023/03/14 00:44:19;;;;;;;1.53;0.97;;;13.50;98.00;;;;;;940279;148;27451;-82
2023/03/14 00:46:46;;;;;;;1.20;1.00;;;13.50;97.90;;;;;;941170;148;27850;-81
2023/03/14 00:49:12;;;;;;;1.07;1.00;;;13.50;97.80;;;;;;941919;148;27440;-82
2023/03/14 00:51:39;;;;;;;2.07;0.90;;;13.50;97.70;;;;;;942778;148;27302;-82
2023/03/14 00:54:05;;;;;;;2.90;1.27;;;13.50;97.60;;;;;;941817;148;27361;-82
2023/03/14 00:56:32;;;;;;;2.93;1.10;;;13.50;97.50;;;;;;942362;148;27470;-81
2023/03/14 00:58:59;;;;;;;1.37;1.10;;;13.50;97.40;;;;;;942091;148;27340;-82
2023/03/14 01:01:25;;;;;;;3.77;1.17;;;13.50;97.40;;;;;;940286;148;27314;-81
2023/03/14 01:03:52;;;;;;;2.70;1.00;;;13.50;97.30;;;;;;941613;148;27426;-81
2023/03/14 01:06:21;;;;;;;1.53;0.90;;;13.40;97.30;;;;;;940796;148;27470;-82
2023/03/14 01:08:48;;;;;;;2.63;1.03;;;13.40;97.30;;;;;;942272;148;27412;-83
2023/03/14 01:11:15;;;;;;;1.67;0.97;;;13.40;97.40;;;;;;941162;148;27390;-82
2023/03/14 01:13:41;;;;;;;1.20;1.10;;;13.50;97.40;;;;;;940096;148;27389;-81
2023/03/14 01:16:08;;;;;;;1.85;1.00;;;13.40;97.40;;;;;;925438;151;27371;-83
2023/03/14 01:18:37;;;;;;;1.77;1.20;;;13.50;97.30;;;;;;904119;154;27418;-83
2023/03/14 01:21:01;;;;;;;2.13;0.70;;;13.50;97.30;;;;;;918351;152;27735;-82
2023/03/14 01:23:27;;;;;;;1.47;0.90;;;13.40;97.10;;;;;;917616;151;27483;-82
2023/03/14 01:25:54;;;;;;;1.10;0.90;;;13.40;97.30;;;;;;922622;151;27321;-81
2023/03/14 01:28:21;;;;;;;2.33;0.80;;;13.40;97.20;;;;;;922697;151;27427;-83
2023/03/14 01:30:47;;;;;;;1.70;0.80;;;13.40;97.30;;;;;;923791;151;27403;-82
2023/03/14 01:33:14;;;;;;;1.33;1.00;;;13.40;97.30;;;;;;922212;151;27370;-82
2023/03/14 01:35:40;;;;;;;2.13;1.00;;;13.40;97.30;;;;;;922905;151;27313;-82
2023/03/14 01:38:07;;;;;;;1.43;0.93;;;13.40;97.40;;;;;;924462;151;27468;-81
2023/03/14 01:40:33;;;;;;;1.30;1.03;;;13.40;97.40;;;;;;926735;151;27493;-83
2023/03/14 01:43:00;;;;;;;2.13;1.20;;;13.40;97.40;;;;;;941710;148;27338;-81
2023/03/14 01:46:04;;;;;;;1.17;0.90;;;13.40;97.40;;;;;;923085;150;27349;-82
2023/03/14 01:48:42;;;;;;;1.87;0.93;;;13.30;97.40;;;;;;923109;151;27478;-83
2023/03/14 01:51:27;;;;;;;4.20;1.03;;;13.30;97.30;;;;;;905490;154;27374;-82
2023/03/14 01:53:54;;;;;;;3.27;1.00;;;13.30;97.10;;;;;;902496;155;27515;-82
2023/03/14 01:56:20;;;;;;;1.60;0.97;;;13.30;96.90;;;;;;904005;154;27426;-83
2023/03/14 01:58:47;;;;;;;3.30;1.13;;;13.30;96.90;;;;;;920283;151;27342;-83
2023/03/14 02:01:13;;;;;;;1.27;1.00;;;13.30;96.90;;;;;;911200;154;27377;-82
2023/03/14 02:03:40;;;;;;;1.10;0.90;;;13.30;97.00;;;;;;902401;153;27405;-83
2023/03/14 02:06:07;;;;;;;1.33;0.87;;;13.30;97.00;;;;;;918268;152;27499;-83
2023/03/14 02:08:33;;;;;;;3.83;1.50;;;13.30;96.90;;;;;;919680;150;27720;-82
2023/03/14 02:11:00;;;;;;;2.63;1.00;;;13.30;97.00;;;;;;902503;155;27372;-81
2023/03/14 02:13:26;;;;;;;2.17;0.90;;;13.30;97.00;;;;;;906138;153;27542;-84
2023/03/14 02:15:53;;;;;;;1.97;0.90;;;13.30;96.90;;;;;;906871;153;27696;-82
2023/03/14 02:18:20;;;;;;;2.07;0.90;;;13.30;96.80;;;;;;919393;151;27340;-82
2023/03/14 02:20:49;;;;;;;1.07;1.07;;;13.30;96.80;;;;;;903365;153;27472;-83
2023/03/14 02:23:16;;;;;;;1.80;1.07;;;13.30;96.80;;;;;;906125;153;27513;-81
2023/03/14 02:25:54;;;;;;;2.20;0.90;;;13.30;96.90;;;;;;900882;155;27540;-83
2023/03/14 02:28:20;;;;;;;1.13;1.03;;;13.30;96.80;;;;;;909189;153;27371;-81
2023/03/14 02:30:47;;;;;;;1.80;1.17;;;13.30;96.90;;;;;;939479;148;27316;-82
2023/03/14 02:33:14;;;;;;;3.77;1.20;;;13.30;97.00;;;;;;925362;151;27358;-82
2023/03/14 02:35:46;;;;;;;1.60;0.90;;;13.30;97.20;;;;;;903900;154;27412;-82
2023/03/14 02:38:25;;;;;;;1.23;1.03;;;13.40;97.20;;;;;;904939;153;27527;-82
2023/03/14 02:40:52;;;;;;;1.83;1.00;;;13.40;97.30;;;;;;906692;154;27430;-83
2023/03/14 02:43:18;;;;;;;2.53;1.30;;;13.40;97.30;;;;;;902582;153;27382;-83
2023/03/14 02:45:45;;;;;;;1.55;0.98;;;13.50;97.30;;;;;;904827;154;27461;-83
2023/03/14 02:48:14;;;;;;;1.40;1.00;;;13.50;97.20;;;;;;906314;153;27453;-82
2023/03/14 02:50:41;;;;;;;1.92;1.00;;;13.50;97.10;;;;;;903129;155;27508;-82
2023/03/14 02:53:08;;;;;;;2.30;1.10;;;13.50;97.00;;;;;;919636;150;27368;-84
2023/03/14 02:55:34;;;;;;;2.30;1.07;;;13.60;96.80;;;;;;919920;152;27361;-84
2023/03/14 02:58:01;;;;;;;3.63;1.13;;;13.60;96.70;;;;;;904571;153;27413;-83
2023/03/14 03:00:27;;;;;;;3.30;1.17;;;13.60;96.70;;;;;;918686;150;27907;-82
2023/03/14 03:02:54;;;;;;;2.10;1.00;;;13.60;96.50;;;;;;920560;152;27321;-83
2023/03/14 03:05:21;;;;;;;1.63;0.93;;;13.70;96.10;;;;;;925616;150;27445;-84
2023/03/14 03:07:47;;;;;;;3.83;1.10;;;13.60;95.70;;;;;;902890;153;27387;-83
2023/03/14 03:10:14;;;;;;;1.80;0.80;;;13.60;95.70;;;;;;918953;152;27502;-81
2023/03/14 03:12:40;;;;;;;1.13;0.80;;;13.60;95.60;;;;;;918958;150;27394;-83
2023/03/14 03:15:07;;;;;;;2.87;1.30;;;13.60;95.50;;;;;;926182;150;27407;-82
2023/03/14 03:17:34;;;;;;;1.33;0.93;;;13.60;95.00;;;;;;930187;149;27399;-82
2023/03/14 03:20:00;;;;;;;2.27;1.07;;;13.60;95.20;;;;;;934125;150;27366;-82
2023/03/14 03:22:27;;;;;;;2.60;0.93;;;13.60;95.10;;;;;;915422;153;27529;-83
2023/03/14 03:24:53;;;;;;;1.67;1.00;;;13.60;95.10;;;;;;913785;153;27376;-83
2023/03/14 03:27:20;;;;;;;1.50;0.97;;;13.60;95.20;;;;;;914625;153;27485;-83
2023/03/14 03:29:47;;;;;;;1.57;1.30;;;13.50;95.20;;;;;;913815;153;27495;-81
2023/03/14 03:32:13;;;;;;;1.17;0.73;;;13.50;95.30;;;;;;912384;153;27459;-83
2023/03/14 03:34:40;;;;;;;1.13;1.00;;;13.50;95.50;;;;;;930009;149;27384;-82
2023/03/14 03:37:06;;;;;;;2.20;1.00;;;13.50;95.50;;;;;;929037;150;27379;-81
2023/03/14 03:39:33;;;;;;;1.57;1.20;;;13.50;95.60;;;;;;929440;149;27290;-82
2023/03/14 03:41:59;;;;;;;1.50;0.70;;;13.50;95.60;;;;;;929825;150;27391;-74
2023/03/14 03:44:26;;;;;;;2.30;1.10;;;13.50;95.60;;;;;;917027;153;27569;-74
2023/03/14 03:46:53;;;;;;;2.07;1.10;;;13.40;95.50;;;;;;912524;153;27358;-74
2023/03/14 03:49:19;;;;;;;0.70;0.70;;;13.40;95.50;;;;;;921621;152;27349;-79
2023/03/14 03:51:46;;;;;;;2.47;0.90;;;13.40;95.60;;;;;;913067;153;27903;-79
2023/03/14 03:54:12;;;;;;;2.97;1.20;;;13.40;95.70;;;;;;929877;149;27411;-79
2023/03/14 03:56:39;;;;;;;1.50;1.03;;;13.40;95.70;;;;;;917424;152;27533;-79
2023/03/14 03:59:06;;;;;;;1.03;0.73;;;13.40;95.80;;;;;;930300;150;27407;-79
2023/03/14 04:01:32;;;;;;;1.50;0.93;;;13.40;95.80;;;;;;927847;150;27398;-79
2023/03/14 04:03:59;;;;;;;1.13;0.80;;;13.40;95.70;;;;;;914398;153;27424;-79
2023/03/14 04:06:25;;;;;;;0.97;0.90;;;13.40;95.50;;;;;;927672;150;27501;-79
2023/03/14 04:08:52;;;;;;;1.80;1.00;;;13.40;95.30;;;;;;914264;153;27373;-80
2023/03/14 04:11:18;;;;;;;2.20;0.90;;;13.30;95.20;;;;;;912369;153;27465;-79
2023/03/14 04:13:45;;;;;;;1.73;0.93;;;13.30;95.10;;;;;;929226;150;27394;-79
2023/03/14 04:16:18;;;;;;;2.97;1.30;;;13.30;95.00;;;;;;929557;149;27533;-79
2023/03/14 04:18:44;;;;;;;1.87;1.77;;;13.30;94.90;;;;;;912583;153;27333;-79
2023/03/14 04:21:11;;;;;;;2.27;1.00;;;13.30;94.70;;;;;;925399;151;27380;-79
2023/03/14 04:23:37;;;;;;;2.03;1.13;;;13.30;94.70;;;;;;909087;152;27492;-79
2023/03/14 04:26:04;;;;;;;1.37;1.07;;;13.30;94.60;;;;;;910024;154;27442;-79
2023/03/14 04:28:31;;;;;;;3.13;1.33;;;13.30;94.60;;;;;;910130;153;27439;-79
2023/03/14 04:30:57;;;;;;;2.17;0.80;;;13.20;94.40;;;;;;905949;154;27413;-79
2023/03/14 04:33:24;;;;;;;2.47;1.20;;;13.20;94.30;;;;;;924981;151;27523;-79
2023/03/14 04:35:50;;;;;;;2.53;0.90;;;13.20;94.20;;;;;;924474;151;27492;-79
2023/03/14 04:38:17;;;;;;;1.50;0.90;;;13.20;94.20;;;;;;915907;153;27558;-79
2023/03/14 04:40:44;;;;;;;2.87;0.90;;;13.20;94.10;;;;;;907446;153;27404;-79
2023/03/14 04:43:10;;;;;;;3.53;1.00;;;13.20;94.00;;;;;;928097;152;27378;-79
2023/03/14 04:45:37;;;;;;;1.10;1.03;;;13.20;94.10;;;;;;914742;153;27329;-80
2023/03/14 04:48:03;;;;;;;2.77;1.00;;;13.20;94.10;;;;;;909859;152;27613;-79
2023/03/14 04:50:30;;;;;;;3.23;1.07;;;13.20;94.20;;;;;;917605;153;27397;-79
2023/03/14 04:52:56;;;;;;;1.23;1.00;;;13.20;94.10;;;;;;908859;154;27474;-79
2023/03/14 04:55:23;;;;;;;2.37;1.27;;;13.10;94.00;;;;;;907915;154;27339;-79
2023/03/14 04:57:50;;;;;;;1.00;0.90;;;13.10;94.00;;;;;;907451;152;27520;-79
2023/03/14 05:00:19;;;;;;;1.93;0.90;;;13.10;94.10;;;;;;925021;150;27864;-79
2023/03/14 05:02:43;;;;;;;3.20;1.20;;;13.10;94.20;;;;;;927459;150;27332;-79
2023/03/14 05:05:09;;;;;;;2.07;1.10;;;13.10;94.20;;;;;;909610;153;27326;-79
2023/03/14 05:07:36;;;;;;;3.70;1.53;;;13.10;94.40;;;;;;917120;153;27894;-79
2023/03/14 05:10:03;;;;;;;3.60;1.07;;;13.20;94.50;;;;;;909302;153;27481;-83
2023/03/14 05:12:29;;;;;;;1.17;0.93;;;13.20;94.60;;;;;;927116;150;27359;-82
2023/03/14 05:14:56;;;;;;;1.47;1.00;;;13.20;94.60;;;;;;927461;153;27359;-82
2023/03/14 05:17:22;;;;;;;1.73;1.03;;;13.20;94.60;;;;;;924934;152;27451;-83
2023/03/14 05:19:49;;;;;;;1.87;0.88;;;13.30;94.60;;;;;;923599;152;27483;-83
2023/03/14 05:22:16;;;;;;;3.13;0.97;;;13.30;94.60;;;;;;925937;151;28413;-83
2023/03/14 05:24:42;;;;;;;1.43;1.00;;;13.40;94.50;;;;;;910160;153;27402;-83
2023/03/14 05:27:09;;;;;;;1.40;1.10;;;13.40;94.40;;;;;;926952;150;27453;-83
2023/03/14 05:29:35;;;;;;;1.17;0.70;;;13.40;94.20;;;;;;910710;153;27441;-82
2023/03/14 05:32:02;;;;;;;2.30;0.98;;;13.50;94.10;;;;;;911067;153;27355;-82
2023/03/14 05:34:28;;;;;;;1.33;0.90;;;13.50;94.00;;;;;;912547;152;27721;-83
2023/03/14 05:36:56;;;;;;;1.75;0.70;;;13.50;94.00;;;;;;918455;153;27462;-83
2023/03/14 05:39:22;;;;;;;1.63;1.40;;;13.50;93.90;;;;;;926073;151;27419;-82
2023/03/14 05:41:48;;;;;;;1.90;1.20;;;13.50;93.80;;;;;;930682;150;27387;-83
2023/03/14 05:44:15;;;;;;;2.12;1.07;;;13.60;93.70;;;;;;919018;153;27454;-83
2023/03/14 05:46:41;;;;;;;0.85;0.80;;;13.60;93.60;;;;;;908218;153;27379;-83
2023/03/14 05:49:08;;;;;;;4.00;0.90;;;13.60;93.50;;;;;;918801;153;27452;-83
2023/03/14 05:51:35;;;;;;;1.30;0.83;;;13.60;93.30;;;;;;926060;151;27396;-82
2023/03/14 05:54:01;;;;;;;2.00;0.90;;;13.60;93.20;;;;;;909321;153;27505;-82
2023/03/14 05:56:28;;;;;;;1.57;1.23;;;13.70;93.20;;;;;;924143;151;27357;-82
2023/03/14 05:58:54;;;;;;;2.52;0.95;;;13.70;93.00;;;;;;910092;153;27396;-83
2023/03/14 06:01:21;;;;;;;2.08;1.00;;;13.70;93.00;;;;;;910217;154;27544;-83
2023/03/14 06:03:48;;;;;;;0.60;0.60;;;13.70;92.80;;;;;;926182;151;27484;-82
2023/03/14 06:06:16;;;;;;;1.70;0.80;;;13.70;92.80;;;;;;910899;153;27380;-83
2023/03/14 06:08:41;;;;;;;2.23;0.93;;;13.80;92.70;;;;;;910111;154;27454;-82
2023/03/14 06:11:08;;;;;;;1.95;0.78;;;13.80;92.50;;;;;;929552;150;27390;-81
2023/03/14 06:13:34;;;;;;;1.77;1.00;;;13.80;92.50;;;;;;924732;151;27484;-83
2023/03/14 06:16:00;;;;;;;1.50;1.10;;;13.80;92.70;;;;;;911510;153;27427;-83
2023/03/14 06:18:27;;;;;;;0.70;0.50;;;13.80;92.80;;;;;;910664;153;27397;-83
2023/03/14 06:20:54;;;;;;;0.82;0.70;;;13.80;92.80;;;;;;911356;153;27367;-83
2023/03/14 06:23:20;;;;;;;2.90;0.98;;;13.80;93.00;;;;;;911137;153;27938;-81
2023/03/14 06:25:47;;;;;;;1.30;0.90;;;13.80;93.10;;;;;;927465;153;27351;-82
2023/03/14 06:28:13;;;;;;;1.77;1.00;;;13.70;93.10;;;;;;908520;153;27386;-83
2023/03/14 06:30:40;;;;;;;2.47;0.97;;;13.60;93.20;;;;;;911683;153;27753;-83
2023/03/14 06:33:07;;;;;;;1.70;1.10;;;13.60;93.20;;;;;;911304;153;27523;-82
2023/03/14 06:35:33;;;;;;;1.97;1.20;;;13.50;93.30;;;;;;927723;151;27322;-82
2023/03/14 06:38:00;;;;;;;2.47;1.25;;;13.50;93.50;;;;;;911945;153;27342;-82
2023/03/14 06:40:26;;;;;;;0.83;0.80;;;13.40;93.60;;;;;;912495;153;27450;-83
2023/03/14 06:42:53;;;;;;;2.27;0.90;;;13.40;93.70;;;;;;906411;154;27449;-83
2023/03/14 06:45:19;;;;;;;3.57;1.23;;;13.40;93.70;;;;;;913801;153;27423;-82
2023/03/14 06:47:46;;;;;;;1.53;0.93;;;13.40;93.80;;;;;;909446;153;27367;-83
2023/03/14 06:50:13;;;;;;;2.60;1.17;;;13.40;94.00;;;;;;908249;154;27382;-82
2023/03/14 06:52:47;;;;;;;2.45;0.98;;;13.40;94.10;;;;;;915504;153;27420;-83
2023/03/14 06:55:09;;;;;;;1.80;1.00;;;13.40;94.10;;;;;;911960;153;27423;-82
2023/03/14 06:57:35;;;;;;;1.57;1.30;;;13.40;94.00;;;;;;907324;154;27913;-82
2023/03/14 07:00:02;;;;;;;2.87;2.10;;;13.40;94.30;;;;;;925592;151;27489;-83
2023/03/14 07:02:28;;;;;;;4.20;2.90;;;13.40;94.00;;;;;;909627;153;27468;-83
2023/03/14 07:04:55;;;;;;;4.57;2.40;;;13.40;94.00;;;;;;926378;151;27479;-77
2023/03/14 07:07:22;;;;;;;1.80;1.65;;;13.40;94.00;;;;;;924508;151;27453;-81
2023/03/14 07:09:48;;;;;;;2.10;1.90;;;13.50;94.00;;;;;;911066;153;27385;-80
2023/03/14 07:12:15;;;;;;;3.40;1.97;;;13.50;93.80;;;;;;910220;153;27491;-81
2023/03/14 07:14:41;;;;;;;2.00;1.33;;;13.50;93.80;;;;;;924929;151;27405;-80
2023/03/14 07:17:08;;;;;;;3.08;1.37;;;13.60;93.70;;;;;;911155;153;27510;-80
2023/03/14 07:19:34;;;;;;;1.40;0.90;;;13.60;93.50;;;;;;904965;155;27346;-81
2023/03/14 07:22:01;;;;;;;1.27;1.00;;;13.60;93.40;;;;;;911713;153;27357;-79
2023/03/14 07:24:28;;;;;;;3.07;1.10;;;13.60;93.20;;;;;;903967;153;27386;-79
2023/03/14 07:26:54;;;;;;;2.75;1.12;;;13.70;93.20;;;;;;904791;154;27431;-74
2023/03/14 07:29:21;;;;;;;3.73;1.40;;;13.70;93.00;;;;;;938318;148;27354;-79
2023/03/14 07:31:47;;;;;;;1.80;1.70;;;13.80;92.80;;;;;;907469;154;27385;-78
2023/03/14 07:34:14;;;;;;;2.37;1.93;;;13.80;92.70;;;;;;917605;152;27459;-81
2023/03/14 07:36:41;;;;;;;2.33;1.62;;;13.90;92.40;;;;;;919535;152;27420;-78
2023/03/14 07:39:07;;;;;;;2.57;1.40;;;13.90;92.50;;;;;;903274;155;27494;-79
2023/03/14 07:41:34;;;;;;;2.27;1.40;;;14.00;92.20;;;;;;919411;152;27356;-78
2023/03/14 07:44:00;;;;;;;4.03;1.50;;;14.00;92.30;;;;;;904295;154;27481;-78
2023/03/14 07:46:27;;;;;;;2.12;1.00;;;14.10;92.30;;;;;;903968;155;27369;-79
2023/03/14 07:48:54;;;;;;;1.22;1.12;;;14.20;91.80;;;;;;904455;155;27531;-78
2023/03/14 07:51:20;;;;;;;2.62;1.00;;;14.30;92.00;;;;;;903664;155;27475;-79
2023/03/14 07:53:47;;;;;;;1.77;1.30;;;14.40;91.40;;;;;;936958;148;27427;-78
2023/03/14 07:56:13;;;;;;;2.87;1.20;;;14.40;91.30;;;;;;924832;151;27317;-78
2023/03/14 07:58:40;;;;;;;2.58;1.00;;;14.40;91.20;;;;;;905880;154;27413;-78
2023/03/14 08:01:06;;;;;;;3.22;1.50;;;14.50;91.00;;;;;;905137;155;27409;-78
2023/03/14 08:03:33;;;;;;;1.52;0.70;;;14.50;91.00;;;;;;901957;155;27376;-78
2023/03/14 08:06:00;;;;;;;3.90;1.30;;;14.50;90.90;;;;;;902365;154;27378;-78
2023/03/14 08:08:26;;;;;;;1.60;0.98;;;14.60;90.50;;;;;;919772;151;27357;-79
2023/03/14 08:10:53;;;;;;;2.25;1.20;;;14.60;90.10;;;;;;921821;151;27505;-78
2023/03/14 08:13:21;;;;;;;2.00;1.07;;;14.70;90.40;;;;;;919506;151;27436;-79
2023/03/14 08:15:46;;;;;;;1.77;1.17;;;14.70;90.20;;;;;;924210;151;27288;-79
2023/03/14 08:18:13;;;;;;;1.05;0.82;;;14.70;90.00;;;;;;941165;148;27397;-78
2023/03/14 08:20:39;;;;;;;2.10;0.60;;;14.80;89.20;;;;;;942393;148;27372;-78
2023/03/14 08:23:06;;;;;;;1.47;1.20;;;14.80;89.00;;;;;;941234;148;27386;-78
2023/03/14 08:25:32;;;;;;;0.95;0.90;;;14.90;88.60;;;;;;940425;148;27396;-78
2023/03/14 08:27:59;;;;;;;0.50;0.50;;;14.90;88.80;;;;;;939780;148;27308;-78
2023/03/14 08:30:26;;;;;;;1.90;0.98;;;15.00;88.40;;;;;;939469;148;27445;-78
2023/03/14 08:32:52;;;;;;;3.08;0.98;;;15.00;88.30;;;;;;941558;148;27502;-78
2023/03/14 08:35:19;;;;;;;1.37;0.72;;;15.00;87.80;;;;;;940303;148;27300;-78
2023/03/14 08:37:46;;;;;;;1.00;0.60;;;15.10;86.50;;;;;;939399;148;27413;-78
2023/03/14 08:40:12;;;;;;;0.78;0.65;;;15.10;86.80;;;;;;938289;148;27367;-78
2023/03/14 08:42:39;;;;;;;2.15;0.80;;;15.10;87.10;;;;;;940417;148;27375;-78
2023/03/14 08:45:05;;;;;;;1.32;1.02;;;15.10;86.80;;;;;;940730;148;27418;-78
2023/03/14 08:47:32;;;;;;;1.65;1.42;;;15.20;85.20;;;;;;939832;148;28677;-78
2023/03/14 08:49:59;;;;;;;1.45;0.80;;;15.20;86.20;;;;;;941689;148;27283;-79
2023/03/14 08:52:25;;;;;;;1.10;1.00;;;15.20;86.80;;;;;;941531;148;27364;-78
2023/03/14 08:54:52;;;;;;;2.22;0.90;;;15.30;87.40;;;;;;942252;148;27442;-79
2023/03/14 08:57:18;;;;;;;0.70;0.70;;;15.40;87.10;;;;;;941560;148;27397;-77
2023/03/14 08:59:45;;;;;;;1.95;0.70;;;15.50;86.50;;;;;;941221;148;27262;-77
2023/03/14 09:02:11;;;;;;;1.45;0.70;;;15.60;85.90;;;;;;941240;148;27340;-76
2023/03/14 09:04:38;;;;;;;0.70;0.70;;;15.60;85.80;;;;;;940664;148;27390;-77
2023/03/14 09:07:05;;;;;;;0.80;0.80;;;15.70;86.30;;;;;;940814;148;27367;-76
2023/03/14 09:09:31;;;;;;;1.87;1.25;;;15.90;87.30;;;;;;941261;148;27393;-77
2023/03/14 09:11:58;;;;;;;0.80;0.80;;;16.10;86.20;;;;;;939324;148;27478;-77
2023/03/14 09:14:24;;;;;;;0.30;0.30;;;16.40;86.10;;;;;;941027;148;27383;-77
2023/03/14 09:16:51;;;;;;;1.22;0.60;;;16.60;85.60;;;;;;940589;148;27382;-77
2023/03/14 09:19:18;;;;;;;0.78;0.78;;;16.80;83.30;;;;;;942982;148;27313;-77
2023/03/14 09:21:44;;;;;;;1.60;0.60;;;17.00;83.10;;;;;;940596;148;27328;-77
2023/03/14 09:24:11;;;;;;;1.12;0.50;;;17.10;82.10;;;;;;940021;148;27960;-76
2023/03/14 09:26:38;;;;;;;0.80;0.80;;;17.10;80.70;;;;;;944058;148;27452;-77
2023/03/14 09:29:04;;;;;;;0.88;0.60;;;17.10;79.40;;;;;;941914;148;27374;-77
2023/03/14 09:31:31;;;;;;;0.85;0.70;;;17.10;79.90;;;;;;940478;148;27341;-77
2023/03/14 09:33:57;;;;;;;1.12;1.05;;;17.10;79.60;;;;;;942262;148;27336;-77
2023/03/14 09:36:24;;;;;;;0.90;0.90;;;17.10;78.90;;;;;;940695;148;27446;-76
2023/03/14 09:38:50;;;;;;;2.00;0.90;;;17.00;78.50;;;;;;940390;148;27435;-76
2023/03/14 09:41:32;;;;;;;1.12;1.00;;;17.00;78.80;;;;;;942201;148;27425;-77
2023/03/14 09:44:10;;;;;;;1.22;0.70;;;17.10;77.70;;;;;;942007;148;27316;-76
2023/03/14 09:46:37;;;;;;;0.70;0.68;;;17.00;78.40;;;;;;942823;148;27385;-76
2023/03/14 09:49:03;;;;;;;0.60;0.60;;;17.00;77.50;;;;;;942342;148;27335;-76
2023/03/14 09:51:31;;;;;;;1.17;0.72;;;16.90;77.20;;;;;;941329;148;27334;-76
2023/03/14 09:53:56;;;;;;;0.50;0.50;;;16.90;77.60;;;;;;943135;148;27467;-77
2023/03/14 09:56:26;;;;;;;0.23;0.20;;;16.80;77.50;;;;;;943686;148;27356;-76
2023/03/14 09:58:52;;;;;;;1.37;0.85;;;16.90;77.80;;;;;;939532;148;27372;-76
2023/03/14 10:01:19;;;;;;;0.50;0.40;;;16.80;78.30;;;;;;940346;148;27341;-76
2023/03/14 10:03:46;;;;;;;1.02;1.02;;;16.80;78.70;;;;;;942021;148;27333;-76
2023/03/14 10:06:13;;;;;;;1.10;0.60;;;16.90;77.70;;;;;;943612;148;27371;-77
2023/03/14 10:08:41;;;;;;;1.10;1.00;;;16.90;76.90;;;;;;941665;148;27339;-77
2023/03/14 10:11:08;;;;;;;0.95;0.78;;;16.90;75.80;;;;;;941477;148;27459;-76
2023/03/14 10:13:34;;;;;;;1.07;0.53;;;16.80;75.90;;;;;;940563;148;27386;-76
2023/03/14 10:16:01;;;;;;;0.30;0.30;;;16.80;76.70;;;;;;941359;148;27894;-77
2023/03/14 10:18:28;;;;;;;0.40;0.40;;;16.70;76.90;;;;;;941143;148;27346;-77
2023/03/14 10:21:25;;;;;;;1.37;0.30;;;16.70;76.20;;;;;;941434;148;27287;-77
2023/03/14 10:23:51;;;;;;;0.90;0.40;;;16.60;76.20;;;;;;942236;148;27324;-76
2023/03/14 10:26:18;;;;;;;0.65;0.42;;;16.50;76.00;;;;;;941358;148;27400;-76
2023/03/14 10:28:55;;;;;;;1.60;0.60;;;16.50;76.60;;;;;;939717;148;27360;-76
2023/03/14 10:31:20;;;;;;;0.72;0.45;;;16.40;76.50;;;;;;940257;148;27340;-77
2023/03/14 10:33:59;;;;;;;0.40;0.37;;;16.40;76.40;;;;;;941874;148;27276;-76
2023/03/14 10:36:29;;;;;;;0.47;0.47;;;16.30;76.60;;;;;;943666;148;27410;-79
2023/03/14 10:38:58;;;;;;;0.45;0.30;;;16.30;77.10;;;;;;942283;148;27373;-78
2023/03/14 10:41:28;;;;;;;0.50;0.50;;;16.20;77.50;;;;;;941125;148;27385;-78
2023/03/14 10:43:54;;;;;;;0.60;0.37;;;16.20;77.60;;;;;;942166;148;27390;-79
2023/03/14 10:46:21;;;;;;;0.30;0.30;;;16.10;78.10;;;;;;940567;148;27421;-79
2023/03/14 10:48:49;;;;;;;0.42;0.42;;;16.00;78.70;;;;;;940136;148;27330;-78
2023/03/14 10:51:17;;;;;;;0.85;0.30;;;16.00;79.50;;;;;;940819;148;27381;-78
2023/03/14 10:53:46;;;;;;;0.40;0.40;;;15.90;80.10;;;;;;941226;148;27353;-79
2023/03/14 10:56:13;;;;;;;0.20;0.20;;;15.80;80.60;;;;;;941760;148;27365;-78
2023/03/14 10:58:39;;;;;;;0.40;0.40;;;15.80;81.30;;;;;;940505;148;27443;-79
2023/03/14 11:01:24;;;;;;;1.02;1.02;;;15.70;81.80;;;;;;942049;148;27360;-79
2023/03/14 11:03:51;;;;;;;1.57;0.50;;;15.60;82.00;;;;;;942714;148;27317;-77
2023/03/14 11:06:20;;;;;;;0.68;0.60;;;15.50;82.50;;;;;;938868;148;27278;-77
2023/03/14 11:08:53;;;;;;;0.65;0.60;;;15.40;83.00;;;;;;936371;148;27445;-77
2023/03/14 11:11:22;;;;;;;0.62;0.40;;;15.30;83.70;;;;;;941104;148;27362;-77
2023/03/14 11:14:00;;;;;;;1.00;0.90;;;15.20;84.30;;;;;;941625;148;27287;-77
2023/03/14 11:16:38;;;;;;;1.70;1.60;;;15.10;85.20;;;;;;942321;148;27504;-78
2023/03/14 11:19:26;;;;;;;1.67;1.57;;;15.00;86.00;;;;;;943245;148;27402;-79
2023/03/14 11:21:59;;;;;;;2.12;1.57;;;15.00;87.00;;;;;;940102;148;28542;-78
2023/03/14 11:24:31;;;;;;;1.85;1.75;;;14.90;87.90;;;;;;940197;148;27313;-77
2023/03/14 11:27:05;;;;;;;2.95;2.10;;;14.80;88.60;;;;;;940095;148;27381;-77
2023/03/14 11:29:39;;;;;;;2.85;2.33;;;14.70;89.10;;;;;;938353;148;27443;-77
2023/03/14 11:32:05;;;;;;;4.03;3.40;;;14.70;89.80;;;;;;940792;148;27321;-77
2023/03/14 11:34:42;;;;;;;1.50;1.40;;;14.70;90.20;;;;;;937035;148;27389;-77
2023/03/14 11:37:07;;;;;;;1.98;1.70;;;14.60;90.60;;;;;;939591;148;27421;-77
2023/03/14 11:39:39;;;;;;;0.90;0.90;;;14.60;91.00;;;;;;938435;148;27449;-77
2023/03/14 11:42:06;;;;;;;2.60;1.22;;;14.60;91.40;;;;;;940548;148;27328;-77
2023/03/14 11:44:39;;;;;;;1.70;1.15;;;14.50;91.60;;;;;;939756;148;27333;-77
2023/03/14 11:47:23;;;;;;;1.02;1.02;;;14.50;91.70;;;;;;940555;148;27391;-77
2023/03/14 11:50:08;;;;;;;0.80;0.80;;;14.50;92.00;;;;;;941083;148;27331;-77
2023/03/14 11:52:35;;;;;;;0.68;0.65;;;14.50;92.00;;;;;;941272;148;27443;-77
2023/03/14 11:55:13;;;;;;;0.67;0.67;;;14.50;92.20;;;;;;939272;148;27349;-77
2023/03/14 11:57:40;;;;;;;1.02;0.88;;;14.40;92.40;;;;;;939131;148;27368;-76
2023/03/14 12:00:21;;;;;;;0.50;0.50;;;14.40;92.50;;;;;;941042;148;27347;-77
2023/03/14 12:03:09;;;;;;;0.50;0.50;;;14.40;92.90;;;;;;940927;148;27369;-77
2023/03/14 12:05:54;;;;;;;0.80;0.40;;;14.40;93.50;;;;;;939600;148;27373;-78
2023/03/14 12:08:33;;;;;;;0.62;0.50;;;14.30;93.40;;;;;;937501;148;27354;-78
2023/03/14 12:10:59;;;;;;;1.55;0.40;;;14.30;93.40;;;;;;928435;148;27420;-77
2023/03/14 12:13:26;;;;;;;1.05;0.68;;;14.40;93.90;;;;;;938931;148;27351;-78
2023/03/14 12:15:55;;;;;;;0.60;0.55;;;14.30;94.30;;;;;;939794;148;27384;-77
2023/03/14 12:18:34;;;;;;;0.50;0.50;;;14.30;94.90;;;;;;939305;148;27354;-77
2023/03/14 12:21:01;;;;;;;0.60;0.60;;;14.40;95.40;;;;;;941915;148;27509;-78
2023/03/14 12:23:27;;;;;;;0.55;0.55;;;14.40;95.80;;;;;;941498;148;27351;-78
2023/03/14 12:26:12;;;;;;;0.70;0.70;;;14.40;96.00;;;;;;942135;148;27463;-77
2023/03/14 12:28:39;;;;;;;0.75;0.70;;;14.50;96.00;;;;;;942318;148;27337;-77
2023/03/14 12:31:30;;;;;;;0.42;0.42;;;14.50;95.90;;;;;;939970;148;27327;-79
2023/03/14 12:34:12;;;;;;;0.90;0.60;;;14.40;96.20;;;;;;942204;148;27328;-78
2023/03/14 12:36:50;;;;;;;0.57;0.30;;;14.40;95.20;;;;;;941991;148;27868;-78
2023/03/14 12:39:32;;;;;;;0.30;0.30;;;14.40;94.30;;;;;;938185;148;27851;-78
2023/03/14 12:42:10;;;;;;;0.53;0.30;;;14.30;93.80;;;;;;941534;148;27441;-78
2023/03/14 12:44:43;;;;;;;0.40;0.40;;;14.20;93.80;;;;;;940698;148;27350;-78
2023/03/14 12:47:18;;;;;;;0.50;0.50;;;14.10;93.80;;;;;;942226;148;27466;-79
2023/03/14 12:49:52;;;;;;;0.82;0.50;;;14.00;93.50;;;;;;941627;148;27396;-78
2023/03/14 12:52:20;;;;;;;0.77;0.40;;;13.90;93.70;;;;;;940023;148;27934;-77